Time;durP1;ratioP1;P1;durP2;ratioP2;P2;SDS_P1;SDS_P2;PMS_P1;PMS_P2;Temp;Humidity;BMP_temperature;BMP_pressure;BME280_temperature;BME280_humidity;BME280_pressure;Samples;Min_cycle;Max_cycle;Signal;HPM_P1;HPM_P2
2021/06/30 00:00:11;;;;;;;19.27;13.13;;;;;;;17.55;100.00;100574.06;4969423;28;20035;-71
2021/06/30 00:02:40;;;;;;;16.42;10.88;;;;;;;17.49;100.00;100567.66;4968494;28;20189;-71
2021/06/30 00:05:07;;;;;;;11.87;9.87;;;;;;;17.54;100.00;100567.03;4968508;28;20130;-71
2021/06/30 00:07:33;;;;;;;20.67;13.25;;;;;;;17.48;100.00;100563.28;4951979;28;20027;-71
2021/06/30 00:09:59;;;;;;;25.80;11.43;;;;;;;17.43;100.00;100559.59;4968321;28;20027;-71
2021/06/30 00:12:25;;;;;;;16.95;11.55;;;;;;;17.45;100.00;100552.09;4968300;28;20847;-71
2021/06/30 00:14:51;;;;;;;19.53;13.03;;;;;;;17.43;100.00;100544.22;4968380;28;20051;-71
2021/06/30 00:17:17;;;;;;;14.13;10.82;;;;;;;17.40;100.00;100554.63;4968803;28;20039;-71
2021/06/30 00:19:43;;;;;;;14.77;11.40;;;;;;;17.41;100.00;100556.25;4968251;28;20038;-71
2021/06/30 00:22:08;;;;;;;21.00;13.60;;;;;;;17.45;100.00;100552.09;4968131;28;20126;-71
2021/06/30 00:24:33;;;;;;;25.60;15.07;;;;;;;17.45;100.00;100554.81;4968134;28;20119;-71
2021/06/30 00:26:59;;;;;;;21.43;13.20;;;;;;;17.42;100.00;100542.56;4969651;28;20089;-71
2021/06/30 00:29:24;;;;;;;23.67;14.48;;;;;;;17.40;100.00;100541.13;4971590;28;20043;-71
2021/06/30 00:31:50;;;;;;;17.47;12.40;;;;;;;17.38;100.00;100545.91;4971462;28;20050;-71
2021/06/30 00:34:15;;;;;;;17.73;12.50;;;;;;;17.42;100.00;100545.28;4971473;28;20061;-71
2021/06/30 00:36:44;;;;;;;20.33;12.07;;;;;;;17.45;100.00;100547.53;4971925;28;20110;-72
2021/06/30 00:39:10;;;;;;;18.95;12.98;;;;;;;17.48;100.00;100543.56;4971845;28;20042;-72
2021/06/30 00:41:35;;;;;;;25.02;12.77;;;;;;;17.47;100.00;100531.13;4971742;28;20062;-72
2021/06/30 00:44:01;;;;;;;22.77;12.90;;;;;;;17.49;100.00;100531.75;4971935;28;20123;-71
2021/06/30 00:46:28;;;;;;;19.57;12.70;;;;;;;17.46;100.00;100530.28;4970560;28;20035;-71
2021/06/30 00:48:54;;;;;;;19.70;12.90;;;;;;;17.46;100.00;100532.16;4970863;28;20403;-72
2021/06/30 00:51:19;;;;;;;19.08;13.85;;;;;;;17.42;100.00;100525.53;4971839;28;20100;-71
2021/06/30 00:53:45;;;;;;;20.83;13.53;;;;;;;17.44;100.00;100528.84;4971823;28;20042;-71
2021/06/30 00:56:11;;;;;;;15.83;12.23;;;;;;;17.38;100.00;100525.13;4970812;28;20042;-72
2021/06/30 00:58:36;;;;;;;26.42;15.75;;;;;;;17.37;100.00;100530.72;4971888;28;20100;-72
2021/06/30 01:01:01;;;;;;;24.57;15.03;;;;;;;17.36;100.00;100532.63;4954942;28;20205;-72
2021/06/30 01:03:28;;;;;;;20.17;13.00;;;;;;;17.35;100.00;100527.41;4971977;28;20074;-72
2021/06/30 01:05:53;;;;;;;17.67;12.80;;;;;;;17.35;100.00;100514.78;4971451;28;20038;-72
2021/06/30 01:08:19;;;;;;;17.23;11.90;;;;;;;17.35;100.00;100522.03;4970948;28;20609;-71
2021/06/30 01:10:44;;;;;;;15.33;12.43;;;;;;;17.30;100.00;100518.13;4970965;28;20539;-72
2021/06/30 01:13:09;;;;;;;20.17;9.67;;;;;;;17.32;100.00;100525.16;4971884;28;20814;-72
2021/06/30 01:15:47;;;;;;;16.33;12.80;;;;;;;17.34;100.00;100517.69;4971698;28;20380;-72
2021/06/30 01:18:12;;;;;;;19.02;13.13;;;;;;;17.32;100.00;100520.59;4971432;28;20118;-72
2021/06/30 01:20:37;;;;;;;15.77;12.30;;;;;;;17.22;100.00;100509.41;4971570;28;20082;-72
2021/06/30 01:23:04;;;;;;;16.63;11.63;;;;;;;17.19;100.00;100517.94;4970526;28;20528;-71
2021/06/30 01:25:29;;;;;;;16.48;12.48;;;;;;;17.20;100.00;100523.09;4971529;28;20038;-72
2021/06/30 01:27:55;;;;;;;16.70;11.70;;;;;;;17.16;100.00;100513.81;4971334;28;20034;-72
2021/06/30 01:30:20;;;;;;;16.57;12.17;;;;;;;17.13;100.00;100510.69;4971593;28;20125;-71
2021/06/30 01:32:45;;;;;;;18.13;13.07;;;;;;;17.07;100.00;100510.50;4970648;28;20055;-71
2021/06/30 01:35:20;;;;;;;18.77;12.10;;;;;;;17.01;100.00;100505.94;4970512;28;20105;-71
2021/06/30 01:37:46;;;;;;;21.45;12.80;;;;;;;16.93;100.00;100510.72;4971071;28;20042;-71
2021/06/30 01:40:12;;;;;;;;;;;;;;;16.95;100.00;100504.09;4970858;28;20059;-71
2021/06/30 01:42:37;;;;;;;;;;;;;;;16.99;100.00;100510.69;4970783;28;20372;-71
2021/06/30 01:45:04;;;;;;;15.77;11.80;;;;;;;16.93;100.00;100505.31;4971341;28;19924;-71
2021/06/30 01:47:29;;;;;;;18.75;11.93;;;;;;;16.98;100.00;100503.66;4970015;28;20105;-72
2021/06/30 01:49:54;;;;;;;16.57;12.10;;;;;;;16.94;100.00;100498.91;4970303;28;20484;-71
2021/06/30 01:52:20;;;;;;;17.63;12.03;;;;;;;16.87;100.00;100496.22;4971140;28;20464;-71
2021/06/30 01:54:45;;;;;;;28.90;16.30;;;;;;;16.79;100.00;100497.25;4971124;28;20472;-71
2021/06/30 01:57:10;;;;;;;18.07;12.87;;;;;;;16.69;100.00;100494.13;4953781;28;20129;-71
2021/06/30 01:59:35;;;;;;;14.27;11.30;;;;;;;16.67;100.00;100507.81;4971111;28;20065;-71
2021/06/30 02:02:02;;;;;;;19.90;10.57;;;;;;;16.60;100.00;100496.22;4970209;28;20042;-73
2021/06/30 02:04:31;;;;;;;15.45;10.07;;;;;;;16.52;100.00;100495.59;4970020;28;20491;-73
2021/06/30 02:06:56;;;;;;;19.63;13.43;;;;;;;16.52;100.00;100503.69;4969765;28;20042;-73
2021/06/30 02:09:21;;;;;;;15.83;10.73;;;;;;;16.50;100.00;100511.13;4971041;28;20054;-73
2021/06/30 02:11:47;;;;;;;15.27;10.60;;;;;;;16.40;100.00;100519.63;4970029;28;20046;-73
2021/06/30 02:14:12;;;;;;;15.90;10.03;;;;;;;16.41;100.00;100519.44;4970015;28;20034;-73
2021/06/30 02:16:37;;;;;;;13.20;10.27;;;;;;;16.40;100.00;100519.63;4969619;28;20549;-73
2021/06/30 02:19:06;;;;;;;14.10;11.67;;;;;;;16.38;100.00;100514.44;4970607;28;20039;-73
2021/06/30 02:21:32;;;;;;;14.98;12.18;;;;;;;16.36;100.00;100519.19;4970655;28;20118;-73
2021/06/30 02:23:59;;;;;;;16.75;12.75;;;;;;;16.32;100.00;100514.44;4953683;28;20026;-73
2021/06/30 02:26:24;;;;;;;20.00;10.73;;;;;;;16.32;100.00;100511.72;4953427;28;20070;-73
2021/06/30 02:28:50;;;;;;;16.93;12.10;;;;;;;16.29;100.00;100512.97;4969706;28;20111;-73
2021/06/30 02:31:17;;;;;;;19.80;11.93;;;;;;;16.24;100.00;100513.59;4969734;28;20297;-73
2021/06/30 02:33:44;;;;;;;20.70;12.27;;;;;;;16.22;100.00;100514.84;4970478;28;20084;-73
2021/06/30 02:36:10;;;;;;;20.70;11.30;;;;;;;16.17;100.00;100520.00;4969381;28;20049;-73
2021/06/30 02:38:35;;;;;;;16.20;12.27;;;;;;;16.17;100.00;100523.53;4970406;28;20047;-73
2021/06/30 02:41:00;;;;;;;15.67;11.20;;;;;;;16.16;100.00;100526.44;4969498;28;20039;-73
2021/06/30 02:43:26;;;;;;;29.30;11.90;;;;;;;16.13;100.00;100518.75;4970455;28;20396;-73
2021/06/30 02:45:51;;;;;;;18.30;11.90;;;;;;;16.10;100.00;100516.47;4969286;28;20375;-73
2021/06/30 02:48:17;;;;;;;17.87;13.47;;;;;;;16.07;100.00;100516.91;4969320;28;20369;-73
2021/06/30 02:50:42;;;;;;;17.10;12.07;;;;;;;16.11;100.00;100518.97;4968958;28;20042;-73
2021/06/30 02:53:07;;;;;;;20.15;11.07;;;;;;;16.11;100.00;100523.50;4969296;28;20042;-73
2021/06/30 02:55:33;;;;;;;20.53;13.50;;;;;;;16.07;100.00;100516.91;4970258;28;20046;-73
2021/06/30 02:57:58;;;;;;;18.50;11.73;;;;;;;16.03;100.00;100517.28;4969018;28;20049;-73
2021/06/30 03:00:25;;;;;;;17.87;11.93;;;;;;;16.07;100.00;100525.81;4969310;28;20346;-73
2021/06/30 03:02:51;;;;;;;16.27;11.27;;;;;;;16.06;100.00;100526.00;4969106;28;20548;-73
2021/06/30 03:05:17;;;;;;;18.85;12.65;;;;;;;16.03;100.00;100519.97;4969265;28;20046;-73
2021/06/30 03:07:43;;;;;;;18.80;12.32;;;;;;;16.03;100.00;100519.97;4952679;28;20035;-73
2021/06/30 03:10:11;;;;;;;15.85;11.90;;;;;;;16.00;100.00;100522.25;4970134;28;20046;-73
2021/06/30 03:12:37;;;;;;;19.38;12.07;;;;;;;15.97;100.00;100526.19;4952959;28;20039;-73
2021/06/30 03:15:05;;;;;;;19.50;12.38;;;;;;;15.98;100.00;100530.53;4970082;28;20395;-73
2021/06/30 03:17:33;;;;;;;15.73;11.45;;;;;;;16.00;100.00;100525.78;4968468;28;20100;-73
2021/06/30 03:19:58;;;;;;;16.95;11.60;;;;;;;16.08;100.00;100518.53;4969170;28;20093;-74
2021/06/30 03:22:24;;;;;;;14.77;10.97;;;;;;;16.02;100.00;100517.50;4969953;28;20043;-73
2021/06/30 03:24:49;;;;;;;16.93;12.37;;;;;;;15.97;100.00;100512.72;4968905;28;20091;-73
2021/06/30 03:27:14;;;;;;;14.43;10.47;;;;;;;15.98;100.00;100517.06;4968761;28;20096;-73
2021/06/30 03:29:40;;;;;;;13.03;11.43;;;;;;;15.99;100.00;100520.59;4969914;28;20070;-73
2021/06/30 03:32:05;;;;;;;23.57;11.43;;;;;;;16.01;100.00;100522.06;4968910;28;20039;-73
2021/06/30 03:34:31;;;;;;;13.20;9.70;;;;;;;16.06;100.00;100520.59;4968722;28;20039;-73
2021/06/30 03:36:56;;;;;;;22.37;13.50;;;;;;;16.11;100.00;100518.97;4969336;28;20038;-73
2021/06/30 03:39:22;;;;;;;17.63;12.33;;;;;;;16.21;100.00;100508.63;4969677;28;20070;-73
2021/06/30 03:41:47;;;;;;;20.87;14.67;;;;;;;16.25;100.00;100514.44;4968624;28;20054;-73
2021/06/30 03:44:12;;;;;;;13.80;10.53;;;;;;;16.33;100.00;100511.53;4968848;28;20035;-73
2021/06/30 03:46:37;;;;;;;14.30;10.67;;;;;;;16.38;100.00;100509.06;4969280;28;20035;-73
2021/06/30 03:49:03;;;;;;;15.47;12.93;;;;;;;16.45;100.00;100509.88;4969587;28;20444;-73
2021/06/30 03:51:28;;;;;;;17.33;12.83;;;;;;;16.55;100.00;100505.94;4968647;28;20400;-73
2021/06/30 03:53:54;;;;;;;13.60;11.37;;;;;;;16.58;100.00;100497.47;4969608;28;20681;-73
2021/06/30 03:56:24;;;;;;;14.77;11.10;;;;;;;16.66;100.00;100516.09;4968329;28;20050;-73
2021/06/30 03:58:53;;;;;;;16.85;11.80;;;;;;;16.75;100.00;100504.06;4968417;28;20035;-73
2021/06/30 04:01:18;;;;;;;19.63;12.15;;;;;;;16.85;100.00;100509.88;4970034;28;20360;-73
2021/06/30 04:03:45;;;;;;;16.07;11.97;;;;;;;16.94;100.00;100513.19;4972868;28;20042;-73
2021/06/30 04:06:10;;;;;;;11.80;10.07;;;;;;;17.03;100.00;100519.22;4971616;28;20556;-73
2021/06/30 04:08:35;;;;;;;16.23;11.93;;;;;;;17.11;100.00;100516.28;4971802;28;20031;-73
2021/06/30 04:11:00;;;;;;;11.30;9.13;;;;;;;17.22;100.00;100512.94;4971953;28;20168;-73
2021/06/30 04:13:26;;;;;;;16.30;10.87;;;;;;;17.31;100.00;100516.25;4971814;28;20119;-73
2021/06/30 04:15:51;;;;;;;9.87;8.87;;;;;;;17.40;100.00;100524.94;4972346;28;20376;-73
2021/06/30 04:18:16;;;;;;;14.70;10.20;;;;;;;17.48;100.00;100514.72;4971601;28;20035;-73
2021/06/30 04:20:44;;;;;;;12.40;10.77;;;;;;;17.54;100.00;100518.44;4972649;28;20054;-73
2021/06/30 04:23:10;;;;;;;13.95;10.38;;;;;;;17.62;100.00;100518.19;4971531;28;20108;-73
2021/06/30 04:25:35;;;;;;;17.92;12.40;;;;;;;17.68;100.00;100514.63;4972576;28;20460;-74
2021/06/30 04:28:00;;;;;;;11.97;8.87;;;;;;;17.78;100.00;100518.75;4972335;28;20038;-74
2021/06/30 04:30:26;;;;;;;10.70;9.03;;;;;;;17.82;100.00;100511.91;4971416;28;20504;-74
2021/06/30 04:32:51;;;;;;;12.07;10.67;;;;;;;17.85;99.64;100516.88;4971555;28;20113;-75
2021/06/30 04:35:16;;;;;;;15.20;10.37;;;;;;;17.91;99.13;100511.44;4971423;28;20124;-74
2021/06/30 04:37:42;;;;;;;15.27;8.73;;;;;;;18.01;99.07;100508.25;4971999;28;20034;-73
2021/06/30 04:40:08;;;;;;;13.53;8.73;;;;;;;18.10;98.54;100512.38;4972350;28;20072;-73
2021/06/30 04:42:33;;;;;;;8.27;7.40;;;;;;;18.14;98.22;100502.78;4955175;28;20035;-74
2021/06/30 04:44:58;;;;;;;7.80;7.00;;;;;;;18.29;97.54;100507.88;4955205;28;20510;-75
2021/06/30 04:47:24;;;;;;;10.63;7.97;;;;;;;18.34;96.75;100504.50;4954941;28;20043;-74
2021/06/30 04:49:49;;;;;;;10.50;7.87;;;;;;;18.52;96.84;100499.16;4955176;28;20145;-74
2021/06/30 04:52:14;;;;;;;10.33;7.83;;;;;;;18.64;95.35;100495.75;4971221;28;20541;-74
2021/06/30 04:54:40;;;;;;;8.90;7.63;;;;;;;18.80;95.19;100497.91;4971321;28;20267;-74
2021/06/30 04:57:05;;;;;;;9.40;7.27;;;;;;;18.91;94.12;100501.75;4970948;28;20057;-76
2021/06/30 04:59:30;;;;;;;14.13;9.10;;;;;;;19.05;93.60;100502.44;4970956;28;20038;-75
2021/06/30 05:01:56;;;;;;;13.07;8.50;;;;;;;19.21;92.48;100507.25;4972085;28;20035;-75
2021/06/30 05:04:21;;;;;;;10.75;5.95;;;;;;;19.23;91.57;100505.16;4971058;28;20085;-75
2021/06/30 05:06:47;;;;;;;10.07;5.85;;;;;;;19.15;89.71;100505.44;4970735;28;20074;-75
2021/06/30 05:09:13;;;;;;;6.65;5.95;;;;;;;19.26;89.01;100503.88;4971731;28;20049;-75
2021/06/30 05:11:39;;;;;;;8.45;7.40;;;;;;;19.40;89.60;100500.78;4970813;28;20181;-74
2021/06/30 05:14:04;;;;;;;8.60;7.03;;;;;;;19.62;90.26;100511.16;4970487;28;20599;-75
2021/06/30 05:16:30;;;;;;;12.77;7.50;;;;;;;19.31;88.10;100507.53;4970642;28;20038;-75
2021/06/30 05:18:55;;;;;;;8.88;6.55;;;;;;;19.56;90.50;100514.75;4971656;28;20360;-75
2021/06/30 05:21:21;;;;;;;10.70;7.50;;;;;;;19.38;89.49;100511.00;4970683;28;20091;-74
2021/06/30 05:23:48;;;;;;;7.90;6.40;;;;;;;19.62;89.83;100519.28;4970739;28;20069;-75
2021/06/30 05:26:13;;;;;;;9.18;6.78;;;;;;;19.86;88.54;100514.00;4970485;28;20081;-75
2021/06/30 05:28:39;;;;;;;8.80;6.87;;;;;;;20.36;88.14;100516.38;4971412;28;20066;-75
2021/06/30 05:31:04;;;;;;;10.10;7.03;;;;;;;20.53;87.57;100521.94;4954884;28;20282;-75
2021/06/30 05:33:30;;;;;;;10.40;6.83;;;;;;;20.76;86.44;100513.84;4971437;28;20794;-75
2021/06/30 05:35:55;;;;;;;10.03;6.67;;;;;;;20.80;84.96;100519.66;4971168;28;20088;-75
2021/06/30 05:38:22;;;;;;;9.75;7.38;;;;;;;20.53;84.31;100508.38;4970524;28;20042;-75
2021/06/30 05:40:48;;;;;;;8.85;6.40;;;;;;;20.72;82.84;100507.28;4970585;28;20093;-76
2021/06/30 05:43:13;;;;;;;9.18;6.90;;;;;;;20.83;82.70;100498.28;4971189;28;20066;-76
2021/06/30 05:45:39;;;;;;;10.17;6.80;;;;;;;20.92;83.61;100501.47;4970316;28;20051;-76
2021/06/30 05:48:04;;;;;;;10.30;7.50;;;;;;;20.89;83.39;100498.44;4970112;28;20095;-76
2021/06/30 05:50:29;;;;;;;14.23;7.37;;;;;;;20.66;83.44;100500.88;4970261;28;21005;-76
2021/06/30 05:52:55;;;;;;;9.47;7.67;;;;;;;20.55;85.18;100500.84;4970244;28;20043;-76
2021/06/30 05:55:20;;;;;;;8.13;6.50;;;;;;;20.48;85.00;100500.94;4971261;28;20039;-76
2021/06/30 05:57:45;;;;;;;11.87;7.77;;;;;;;20.55;82.26;100496.25;4970769;28;20502;-75
2021/06/30 06:00:14;;;;;;;16.53;7.67;;;;;;;20.98;80.50;100505.16;4954017;28;20459;-76
2021/06/30 06:02:39;;;;;;;13.77;7.55;;;;;;;21.44;78.76;100501.53;4954110;28;20062;-76
2021/06/30 06:05:05;;;;;;;9.10;7.00;;;;;;;21.40;80.92;100492.25;4971112;28;20108;-76
2021/06/30 06:07:30;;;;;;;10.88;9.15;;;;;;;21.04;79.16;100493.31;4970627;28;20085;-76
2021/06/30 06:09:56;;;;;;;17.97;10.20;;;;;;;20.76;82.30;100494.88;4971101;28;20037;-75
2021/06/30 06:12:21;;;;;;;12.60;9.67;;;;;;;20.69;82.07;100493.34;4969923;28;20041;-76
2021/06/30 06:14:47;;;;;;;13.40;10.38;;;;;;;20.70;82.49;100492.25;4970992;28;20415;-76
2021/06/30 06:17:12;;;;;;;16.53;9.80;;;;;;;20.87;82.36;100495.94;4970535;28;20038;-75
2021/06/30 06:19:37;;;;;;;14.70;10.27;;;;;;;21.11;83.03;100498.63;4969954;28;20081;-76
2021/06/30 06:22:05;;;;;;;13.47;10.10;;;;;;;20.95;81.10;100498.28;4970788;28;20061;-76
2021/06/30 06:24:32;;;;;;;20.30;10.18;;;;;;;20.55;80.57;100496.25;4952873;28;20042;-76
2021/06/30 06:26:58;;;;;;;19.15;10.68;;;;;;;20.59;82.41;100492.03;4969408;28;20108;-76
2021/06/30 06:29:24;;;;;;;16.10;11.57;;;;;;;20.59;83.05;100489.31;4970690;28;20068;-76
2021/06/30 06:31:49;;;;;;;16.63;12.82;;;;;;;20.59;84.00;100480.38;4969736;28;20041;-76
2021/06/30 06:34:19;;;;;;;19.55;12.23;;;;;;;20.59;83.66;100488.50;4969784;28;20046;-76
2021/06/30 06:36:45;;;;;;;14.52;10.45;;;;;;;20.57;84.06;100474.34;4969402;28;20751;-76
2021/06/30 06:39:11;;;;;;;;;;;;;;;20.52;83.85;100487.75;4970080;28;20480;-76
2021/06/30 06:41:36;;;;;;;;;;;;;;;20.30;83.95;100487.47;4970823;28;19925;-76
2021/06/30 06:44:02;;;;;;;13.17;10.80;;;;;;;20.06;84.30;100487.44;4970523;28;19922;-76
2021/06/30 06:46:27;;;;;;;13.30;10.52;;;;;;;20.06;83.20;100487.44;4970148;28;20084;-76
2021/06/30 06:48:53;;;;;;;14.47;10.53;;;;;;;20.44;83.34;100481.63;4970327;28;20039;-76
2021/06/30 06:51:18;;;;;;;13.07;10.13;;;;;;;20.37;82.36;100493.63;4953318;28;20034;-76
2021/06/30 06:53:43;;;;;;;12.83;9.70;;;;;;;20.78;82.66;100500.06;4970324;28;20026;-76
2021/06/30 06:56:11;;;;;;;12.27;9.20;;;;;;;21.17;79.65;100494.97;4969973;28;20053;-76
2021/06/30 06:58:37;;;;;;;13.38;9.73;;;;;;;20.99;78.90;100494.03;4969217;28;20460;-76
2021/06/30 07:01:04;;;;;;;10.38;9.30;;;;;;;21.28;78.87;100494.09;4953078;28;20125;-76
2021/06/30 07:03:30;;;;;;;10.85;9.10;;;;;;;22.10;77.28;100482.13;4953176;28;20064;-76
2021/06/30 07:05:55;;;;;;;11.77;9.70;;;;;;;22.73;74.63;100486.47;4969000;28;20038;-76
2021/06/30 07:08:20;;;;;;;11.23;8.93;;;;;;;23.31;71.49;100484.25;4970193;28;20570;-77
2021/06/30 07:10:46;;;;;;;11.80;9.40;;;;;;;24.24;70.48;100491.53;4953019;28;20038;-76
2021/06/30 07:13:12;;;;;;;11.43;6.63;;;;;;;25.07;65.39;100482.84;4969111;28;20047;-77
2021/06/30 07:15:40;;;;;;;10.82;7.43;;;;;;;25.26;64.55;100489.56;4969088;28;20050;-77
2021/06/30 07:18:05;;;;;;;10.70;7.75;;;;;;;24.80;65.64;100497.47;4968720;28;20045;-77
2021/06/30 07:20:31;;;;;;;6.63;5.90;;;;;;;25.38;62.74;100492.06;4969039;28;20043;-77
2021/06/30 07:22:56;;;;;;;11.43;8.75;;;;;;;25.64;61.93;100487.50;4969019;28;20035;-77
2021/06/30 07:25:21;;;;;;;9.83;8.77;;;;;;;25.65;61.06;100488.31;4968725;28;20043;-77
2021/06/30 07:27:47;;;;;;;9.52;8.35;;;;;;;25.27;61.80;100488.44;4969728;28;20045;-77
2021/06/30 07:30:13;;;;;;;11.07;9.27;;;;;;;25.57;62.42;100481.47;4952844;28;20043;-77
2021/06/30 07:32:38;;;;;;;;;;;;;;;25.54;61.47;100481.97;4969392;28;20506;-77
2021/06/30 07:35:04;;;;;;;8.60;7.30;;;;;;;25.87;61.25;100479.91;4969741;28;19922;-77
2021/06/30 07:37:29;;;;;;;9.77;6.05;;;;;;;26.02;58.12;100482.69;4968278;28;20437;-77
2021/06/30 07:39:54;;;;;;;6.97;5.73;;;;;;;26.25;57.23;100481.31;4952639;28;20051;-78
2021/06/30 07:42:20;;;;;;;9.93;7.90;;;;;;;26.10;60.30;100475.84;4968724;28;20113;-77
2021/06/30 07:44:46;;;;;;;7.63;6.53;;;;;;;26.52;57.10;100474.75;4968777;28;20304;-77
2021/06/30 07:47:11;;;;;;;7.18;5.60;;;;;;;27.02;54.26;100477.66;4969299;28;20088;-77
2021/06/30 07:49:37;;;;;;;8.38;6.63;;;;;;;26.85;58.12;100484.28;4969675;28;20511;-77
2021/06/30 07:52:03;;;;;;;6.78;6.05;;;;;;;26.53;56.93;100482.69;4969535;28;20031;-77
2021/06/30 07:54:28;;;;;;;8.57;6.22;;;;;;;26.98;56.43;100482.09;4968471;28;20054;-77
2021/06/30 07:56:53;;;;;;;7.50;6.77;;;;;;;26.79;55.19;100490.06;4969299;28;20046;-78
2021/06/30 07:59:19;;;;;;;8.43;6.70;;;;;;;26.52;56.43;100483.75;4969434;28;20064;-77
2021/06/30 08:01:44;;;;;;;9.23;7.30;;;;;;;26.26;57.32;100482.16;4969544;28;20293;-77
2021/06/30 08:04:09;;;;;;;7.93;7.17;;;;;;;27.34;56.68;100491.00;4969486;28;20286;-77
2021/06/30 08:06:36;;;;;;;8.15;7.15;;;;;;;26.55;58.31;100481.59;4952114;28;20043;-77
2021/06/30 08:09:03;;;;;;;9.73;6.07;;;;;;;26.07;58.26;100488.16;4969120;28;20113;-78
2021/06/30 08:11:28;;;;;;;9.82;6.60;;;;;;;25.42;60.38;100489.59;4968399;28;20157;-77
2021/06/30 08:13:54;;;;;;;6.93;6.17;;;;;;;25.65;59.04;100489.13;4968439;28;20133;-74
2021/06/30 08:16:21;;;;;;;6.85;5.40;;;;;;;25.53;59.04;100485.81;4969053;28;20035;-74
2021/06/30 08:18:47;;;;;;;7.05;6.18;;;;;;;25.30;60.37;100494.47;4969164;28;20035;-73
2021/06/30 08:21:13;;;;;;;6.97;6.38;;;;;;;24.69;61.45;100490.28;4968216;28;20044;-73
2021/06/30 08:23:38;;;;;;;;;;;;;;;24.39;63.58;100488.13;4969517;28;20035;-73
2021/06/30 08:26:06;;;;;;;12.80;6.85;;;;;;;24.68;61.29;100485.91;4968827;28;20434;-74
2021/06/30 08:28:32;;;;;;;7.22;6.50;;;;;;;24.64;63.08;100482.88;4969011;28;20080;-73
2021/06/30 08:30:57;;;;;;;7.63;6.93;;;;;;;24.97;61.40;100480.91;4969090;28;20043;-73
2021/06/30 08:33:22;;;;;;;6.63;6.03;;;;;;;25.59;60.26;100484.75;4968163;28;20046;-73
2021/06/30 08:35:48;;;;;;;6.30;5.60;;;;;;;26.62;56.12;100480.25;4968906;28;20046;-73
2021/06/30 08:38:13;;;;;;;6.23;5.63;;;;;;;26.23;54.75;100488.97;4967610;28;20031;-73
2021/06/30 08:40:38;;;;;;;6.30;5.70;;;;;;;26.82;55.17;100490.31;4968132;28;20113;-73
2021/06/30 08:43:05;;;;;;;6.28;5.68;;;;;;;26.39;56.72;100486.25;4951765;28;20035;-73
2021/06/30 08:45:31;;;;;;;6.43;5.20;;;;;;;26.26;57.55;100480.22;4968919;28;20047;-73
2021/06/30 08:47:58;;;;;;;6.15;5.55;;;;;;;26.34;56.63;100484.34;4969152;28;20590;-73
2021/06/30 08:50:24;;;;;;;6.45;5.85;;;;;;;25.84;59.62;100481.25;4971266;28;20053;-73
2021/06/30 08:52:50;;;;;;;;;;;;;;;25.18;61.83;100489.22;4972407;28;20145;-73
2021/06/30 08:55:16;;;;;;;6.45;5.85;;;;;;;25.72;59.89;100477.94;4971178;28;19914;-73
2021/06/30 08:57:45;;;;;;;7.07;6.38;;;;;;;25.17;59.47;100485.66;4970914;28;20112;-78
2021/06/30 09:00:11;;;;;;;7.55;6.75;;;;;;;24.14;62.59;100488.72;4955056;28;20070;-78
2021/06/30 09:02:36;;;;;;;8.30;6.93;;;;;;;24.96;63.79;100478.41;4971229;28;20069;-78
2021/06/30 09:05:35;;;;;;;8.10;6.00;;;;;;;25.47;58.86;100492.34;4971185;28;20432;-78
2021/06/30 09:07:59;;;;;;;7.80;6.82;;;;;;;25.35;60.81;100494.50;4970845;28;20133;-78
2021/06/30 09:10:36;;;;;;;7.20;6.23;;;;;;;25.97;59.96;100496.34;4972070;28;20126;-77
2021/06/30 09:13:03;;;;;;;9.48;5.22;;;;;;;25.44;58.94;100496.44;4954766;28;20467;-73
2021/06/30 09:15:34;;;;;;;10.15;6.00;;;;;;;25.40;62.65;100502.69;4970798;28;20043;-73
2021/06/30 09:18:18;;;;;;;6.32;5.72;;;;;;;25.53;59.43;100495.94;4971344;28;20424;-73
2021/06/30 09:20:44;;;;;;;6.63;5.70;;;;;;;26.35;59.45;100494.19;4970696;28;20522;-73
2021/06/30 09:23:11;;;;;;;6.78;6.03;;;;;;;26.00;60.08;100495.81;4970669;28;20452;-73
2021/06/30 09:25:40;;;;;;;7.32;6.30;;;;;;;25.60;61.35;100491.03;4970689;28;20031;-73
2021/06/30 09:28:22;;;;;;;7.30;6.25;;;;;;;25.01;62.05;100492.13;4970293;28;20035;-73
2021/06/30 09:31:06;;;;;;;8.98;7.72;;;;;;;24.28;65.11;100495.41;4952615;28;20045;-73
2021/06/30 09:34:03;;;;;;;8.20;7.40;;;;;;;24.47;66.77;100490.41;4968559;28;20041;-73
2021/06/30 09:36:32;;;;;;;8.70;7.57;;;;;;;24.47;66.69;100492.28;4968197;28;20045;-73
2021/06/30 09:39:09;;;;;;;7.57;6.53;;;;;;;24.38;63.09;100491.94;4968376;28;20039;-73
2021/06/30 09:41:36;;;;;;;7.22;6.47;;;;;;;24.80;61.73;100488.44;4969324;28;20137;-73
2021/06/30 09:44:05;;;;;;;7.57;6.53;;;;;;;24.83;63.78;100499.66;4952759;28;20041;-73
2021/06/30 09:46:30;;;;;;;9.48;7.00;;;;;;;24.32;64.16;100493.78;4970604;28;20487;-73
2021/06/30 09:49:01;;;;;;;7.18;6.53;;;;;;;24.09;65.82;100483.22;4953988;28;20026;-73
2021/06/30 09:51:27;;;;;;;8.18;6.20;;;;;;;23.65;66.75;100486.84;4953957;28;20058;-73
2021/06/30 09:53:53;;;;;;;8.10;7.30;;;;;;;23.30;68.34;100488.06;4970229;28;20525;-73
2021/06/30 09:56:38;;;;;;;8.15;6.97;;;;;;;23.13;69.40;100481.84;4969904;28;20138;-73
2021/06/30 09:59:28;;;;;;;10.25;8.02;;;;;;;22.87;72.27;100486.91;4952827;28;20049;-73
2021/06/30 10:02:01;;;;;;;11.63;8.90;;;;;;;22.49;72.03;100495.84;4966161;28;20112;-73
2021/06/30 10:04:31;;;;;;;11.55;8.77;;;;;;;22.60;72.35;100494.94;4970160;28;20125;-73
2021/06/30 10:07:13;;;;;;;10.82;8.68;;;;;;;22.44;72.70;100493.88;4969848;28;20371;-73
2021/06/30 10:10:05;;;;;;;13.35;9.27;;;;;;;22.40;75.09;100483.75;4969997;28;20031;-73
2021/06/30 10:12:33;;;;;;;11.35;8.18;;;;;;;22.29;73.74;100489.03;4977865;28;20058;-73
2021/06/30 10:15:00;;;;;;;9.07;7.78;;;;;;;22.35;71.95;100484.47;4953826;28;20160;-73
2021/06/30 10:17:25;;;;;;;9.00;7.28;;;;;;;22.33;72.00;100483.91;4970468;28;20043;-73
2021/06/30 10:19:54;;;;;;;10.25;8.07;;;;;;;22.69;71.13;100471.69;4969917;28;20042;-73
2021/06/30 10:22:21;;;;;;;11.00;7.35;;;;;;;22.97;70.04;100476.19;4953495;28;20043;-73
2021/06/30 10:24:46;;;;;;;9.85;8.00;;;;;;;23.23;67.14;100475.72;4969737;28;20153;-73
2021/06/30 10:27:13;;;;;;;7.90;6.20;;;;;;;23.75;64.85;100462.44;4970368;28;20039;-73
2021/06/30 10:29:42;;;;;;;6.13;5.53;;;;;;;24.07;64.45;100471.75;4969633;28;20039;-73
2021/06/30 10:32:13;;;;;;;12.20;6.30;;;;;;;24.15;65.44;100471.28;4969742;28;20039;-73
2021/06/30 10:34:40;;;;;;;8.60;7.07;;;;;;;24.06;65.18;100467.38;4969587;28;20039;-72
2021/06/30 10:37:22;;;;;;;8.90;6.05;;;;;;;23.96;63.19;100463.47;4969078;28;20039;-73
2021/06/30 10:39:56;;;;;;;7.82;5.18;;;;;;;23.88;62.85;100454.94;4970484;28;20035;-73
2021/06/30 10:42:24;;;;;;;6.57;5.32;;;;;;;24.15;62.80;100449.47;4969448;28;20172;-73
2021/06/30 10:44:59;;;;;;;7.38;5.43;;;;;;;24.22;62.63;100450.06;4969445;28;20060;-73
2021/06/30 10:47:41;;;;;;;7.18;6.47;;;;;;;23.97;63.61;100453.38;4952967;28;20539;-73
2021/06/30 10:50:19;;;;;;;7.47;6.18;;;;;;;24.87;59.05;100447.28;4969548;28;20529;-73
2021/06/30 10:53:01;;;;;;;11.13;6.95;;;;;;;24.11;61.69;100448.34;4953233;28;20047;-73
2021/06/30 10:55:36;;;;;;;8.77;6.65;;;;;;;23.94;62.47;100460.19;4969303;28;20035;-73
2021/06/30 10:58:10;;;;;;;9.33;8.27;;;;;;;23.62;61.66;100464.72;4969811;28;20049;-73
2021/06/30 11:00:37;;;;;;;12.82;8.43;;;;;;;23.39;63.89;100448.41;4969221;28;20876;-73
2021/06/30 11:03:26;;;;;;;12.05;9.98;;;;;;;23.29;66.39;100452.91;4970183;28;20043;-73
2021/06/30 11:06:18;;;;;;;10.18;7.72;;;;;;;23.14;67.24;100443.47;4968857;28;20467;-73
2021/06/30 11:08:50;;;;;;;11.70;7.63;;;;;;;22.92;67.80;100450.75;4969206;28;20042;-72
2021/06/30 11:11:17;;;;;;;9.68;7.28;;;;;;;22.66;66.20;100453.13;4969613;28;20039;-73
2021/06/30 11:14:00;;;;;;;10.43;8.15;;;;;;;22.65;66.95;100461.56;4970009;28;20088;-73